createdAt,value
2022-11-17T00:01:45.350Z,4.00
2022-11-17T00:04:15.697Z,3.83
2022-11-17T00:06:44.308Z,3.40
2022-11-17T00:09:17.382Z,3.57
2022-11-17T00:12:04.117Z,3.70
2022-11-17T00:14:34.001Z,4.60
2022-11-17T00:17:03.432Z,4.43
2022-11-17T00:19:50.847Z,2.60
2022-11-17T00:22:19.957Z,3.20
2022-11-17T00:24:49.768Z,3.70
2022-11-17T00:27:19.069Z,3.87
2022-11-17T00:29:47.688Z,3.30
2022-11-17T00:32:37.057Z,3.20
2022-11-17T00:35:08.229Z,2.30
2022-11-17T00:37:38.955Z,3.70
2022-11-17T00:40:08.536Z,3.30
2022-11-17T00:42:37.124Z,2.43
2022-11-17T00:45:06.359Z,1.87
2022-11-17T00:47:37.920Z,3.50
2022-11-17T00:50:08.985Z,3.50
2022-11-17T00:52:37.730Z,2.63
2022-11-17T00:55:07.390Z,3.17
2022-11-17T00:57:36.078Z,2.43
2022-11-17T01:00:04.915Z,2.33
2022-11-17T01:02:33.568Z,1.43
2022-11-17T01:05:02.178Z,2.50
2022-11-17T01:07:32.177Z,3.30
2022-11-17T01:10:00.816Z,2.80
2022-11-17T01:12:29.438Z,1.67
2022-11-17T01:14:58.114Z,3.60
2022-11-17T01:17:27.091Z,2.43
2022-11-17T01:19:55.755Z,2.07
2022-11-17T01:22:24.550Z,3.13
2022-11-17T01:24:54.522Z,3.00
2022-11-17T01:27:23.135Z,3.00
2022-11-17T01:29:51.731Z,3.73
2022-11-17T01:32:20.380Z,3.70
2022-11-17T01:34:49.176Z,2.43
2022-11-17T01:37:20.440Z,3.70
2022-11-17T01:39:49.918Z,3.20
2022-11-17T01:42:22.487Z,2.83
2022-11-17T01:45:02.546Z,3.60
2022-11-17T01:47:44.329Z,4.00
2022-11-17T01:50:31.094Z,4.07
2022-11-17T01:53:02.193Z,3.00
2022-11-17T01:55:36.003Z,2.80
2022-11-17T01:58:10.187Z,4.00
2022-11-17T02:00:39.138Z,3.93
2022-11-17T02:03:11.268Z,3.40
2022-11-17T02:05:52.388Z,4.57
2022-11-17T02:08:24.445Z,3.73
2022-11-17T02:10:54.402Z,4.10
2022-11-17T02:13:25.718Z,4.30
2022-11-17T02:15:54.462Z,2.83
2022-11-17T02:18:23.357Z,3.40
2022-11-17T02:21:02.442Z,3.63
2022-11-17T02:24:01.346Z,3.17
2022-11-17T02:26:57.073Z,2.03
2022-11-17T02:29:34.779Z,3.10
2022-11-17T02:32:09.536Z,2.27
2022-11-17T02:34:48.118Z,2.90
2022-11-17T02:37:25.597Z,2.57
2022-11-17T02:40:00.622Z,3.30
2022-11-17T02:42:53.337Z,3.37
2022-11-17T02:45:27.409Z,3.07
2022-11-17T02:47:59.098Z,3.33
2022-11-17T02:50:29.920Z,3.37
2022-11-17T02:52:58.670Z,4.00
2022-11-17T02:55:27.868Z,4.00
2022-11-17T02:57:56.480Z,3.00
2022-11-17T03:00:30.307Z,4.20
2022-11-17T03:03:15.815Z,3.63
2022-11-17T03:05:56.357Z,4.47
2022-11-17T03:08:33.344Z,3.40
2022-11-17T03:11:03.795Z,3.33
2022-11-17T03:13:41.888Z,3.57
2022-11-17T03:16:24.713Z,4.00
2022-11-17T03:19:06.069Z,4.50
2022-11-17T03:21:39.505Z,4.30
2022-11-17T03:24:15.008Z,3.27
2022-11-17T03:26:48.055Z,4.17
2022-11-17T03:29:20.180Z,4.23
2022-11-17T03:31:53.474Z,3.97
2022-11-17T03:34:25.657Z,3.20
2022-11-17T03:36:59.783Z,3.87
2022-11-17T03:39:32.796Z,3.80
2022-11-17T03:42:04.191Z,4.30
2022-11-17T03:44:37.710Z,4.00
2022-11-17T03:47:10.701Z,3.73
2022-11-17T03:49:44.827Z,3.60
2022-11-17T03:52:13.487Z,2.43
2022-11-17T03:54:43.243Z,3.77
2022-11-17T03:57:16.845Z,3.80
2022-11-17T03:59:53.567Z,3.50
2022-11-17T04:02:25.024Z,3.87
2022-11-17T04:05:09.299Z,3.80
2022-11-17T04:07:40.147Z,2.90
2022-11-17T04:10:10.805Z,3.63
2022-11-17T04:12:56.732Z,3.60
2022-11-17T04:15:43.626Z,3.60
2022-11-17T04:18:13.707Z,2.83
2022-11-17T04:20:42.468Z,2.53
2022-11-17T04:23:14.236Z,3.30
2022-11-17T04:26:02.668Z,3.30
2022-11-17T04:28:38.697Z,3.50
2022-11-17T04:31:09.891Z,3.87
2022-11-17T04:33:41.370Z,2.57
2022-11-17T04:36:11.465Z,4.37
2022-11-17T04:38:43.776Z,4.43
2022-11-17T04:41:31.488Z,3.50
2022-11-17T04:44:00.997Z,2.50
2022-11-17T04:46:32.427Z,3.40
2022-11-17T04:49:03.218Z,3.63
2022-11-17T04:51:32.735Z,3.50
2022-11-17T04:54:01.994Z,3.70
2022-11-17T04:56:31.145Z,3.23
2022-11-17T04:58:59.923Z,4.50
2022-11-17T05:01:29.808Z,2.30
2022-11-17T05:03:59.515Z,4.30
2022-11-17T05:06:32.089Z,2.37
2022-11-17T05:09:02.493Z,3.50
2022-11-17T05:11:49.625Z,2.73
2022-11-17T05:14:19.998Z,3.63
2022-11-17T05:17:09.881Z,3.90
2022-11-17T05:19:41.184Z,1.83
2022-11-17T05:22:29.735Z,4.70
2022-11-17T05:24:58.715Z,3.30
2022-11-17T05:27:27.556Z,3.17
2022-11-17T05:29:56.196Z,3.40
2022-11-17T05:32:24.870Z,3.23
2022-11-17T05:34:53.615Z,3.47
2022-11-17T05:37:23.687Z,5.10
2022-11-17T05:39:52.341Z,2.80
2022-11-17T05:42:20.973Z,2.30
2022-11-17T05:44:49.655Z,1.83
2022-11-17T05:47:18.526Z,3.70
2022-11-17T05:49:48.301Z,2.40
2022-11-17T05:52:16.972Z,2.70
2022-11-17T05:54:46.989Z,2.83
2022-11-17T05:57:18.739Z,2.90
2022-11-17T05:59:51.802Z,2.67
2022-11-17T06:02:24.012Z,2.80
2022-11-17T06:04:53.473Z,1.87
2022-11-17T06:07:22.266Z,2.37
2022-11-17T06:09:53.240Z,2.00
2022-11-17T06:12:21.910Z,1.33
2022-11-17T06:14:50.560Z,2.60
2022-11-17T06:17:34.339Z,1.80
2022-11-17T06:20:08.222Z,3.03
2022-11-17T06:22:37.689Z,2.50
2022-11-17T06:25:14.189Z,2.30
2022-11-17T06:27:43.865Z,2.70
2022-11-17T06:30:13.472Z,2.50
2022-11-17T06:32:44.271Z,1.87
2022-11-17T06:35:16.318Z,2.33
2022-11-17T06:37:45.119Z,2.80
2022-11-17T06:40:15.462Z,2.40
2022-11-17T06:43:00.851Z,2.63
2022-11-17T06:45:29.627Z,1.97
2022-11-17T06:47:58.212Z,1.40
2022-11-17T06:50:27.127Z,1.90
2022-11-17T06:52:58.667Z,2.03
2022-11-17T06:55:29.600Z,2.83
2022-11-17T06:58:01.855Z,1.97
2022-11-17T07:00:31.272Z,1.47
2022-11-17T07:03:03.644Z,2.20
2022-11-17T07:05:33.372Z,1.60
2022-11-17T07:08:03.485Z,2.50
2022-11-17T07:10:35.066Z,3.17
2022-11-17T07:13:04.050Z,1.57
2022-11-17T07:15:32.908Z,1.30
2022-11-17T07:18:01.544Z,1.40
2022-11-17T07:20:30.187Z,1.90
2022-11-17T07:23:00.997Z,1.50
2022-11-17T07:25:29.681Z,1.93
2022-11-17T07:28:02.711Z,1.60
2022-11-17T07:30:31.663Z,1.60
2022-11-17T07:33:00.906Z,1.53
2022-11-17T07:35:29.970Z,1.73
2022-11-17T07:37:59.970Z,1.57
2022-11-17T07:40:29.116Z,1.60
2022-11-17T07:42:57.991Z,1.10
2022-11-17T07:45:31.770Z,1.63
2022-11-17T07:48:02.684Z,2.00
2022-11-17T07:50:32.309Z,0.97
2022-11-17T07:53:01.112Z,1.07
2022-11-17T07:55:29.976Z,1.70
2022-11-17T07:57:59.503Z,1.43
2022-11-17T08:00:31.746Z,2.47
2022-11-17T08:03:03.683Z,1.60
2022-11-17T08:05:33.005Z,0.90
2022-11-17T08:08:03.782Z,1.50
2022-11-17T08:10:32.456Z,1.13
2022-11-17T08:13:01.793Z,1.73
2022-11-17T08:15:32.180Z,1.90
2022-11-17T08:18:02.232Z,1.53
2022-11-17T08:20:31.612Z,1.60
2022-11-17T08:23:00.293Z,2.53
2022-11-17T08:25:29.300Z,2.23
2022-11-17T08:27:58.795Z,2.00
2022-11-17T08:30:28.679Z,1.73
2022-11-17T08:32:58.709Z,1.67
2022-11-17T08:35:29.784Z,2.00
2022-11-17T08:38:01.697Z,1.53
2022-11-17T08:40:30.350Z,1.53
2022-11-17T08:43:01.507Z,2.00
2022-11-17T08:45:30.541Z,1.67
2022-11-17T08:48:00.647Z,2.53
2022-11-17T08:50:29.349Z,1.40
2022-11-17T08:52:58.053Z,2.60
2022-11-17T08:55:26.792Z,1.40
2022-11-17T08:57:55.494Z,1.27
2022-11-17T09:00:24.348Z,2.00
2022-11-17T09:02:53.010Z,2.10
2022-11-17T09:05:24.950Z,1.67
2022-11-17T09:07:53.964Z,2.03
2022-11-17T09:10:22.675Z,1.90
2022-11-17T09:12:51.317Z,3.27
2022-11-17T09:15:20.033Z,1.67
2022-11-17T09:17:48.709Z,1.70
2022-11-17T09:20:17.959Z,5.33
2022-11-17T09:22:48.163Z,2.90
2022-11-17T09:25:17.618Z,1.73
2022-11-17T09:27:46.281Z,2.57
2022-11-17T09:30:21.873Z,1.80
2022-11-17T09:32:50.540Z,2.60
2022-11-17T09:35:20.200Z,1.57
2022-11-17T09:37:50.295Z,2.30
2022-11-17T09:40:21.025Z,1.73
2022-11-17T09:42:50.084Z,1.23
2022-11-17T09:45:23.038Z,2.33
2022-11-17T09:48:12.310Z,1.87
2022-11-17T09:50:47.843Z,1.97
2022-11-17T09:53:26.174Z,2.67
2022-11-17T09:55:57.742Z,2.80
2022-11-17T09:58:34.127Z,3.03
2022-11-17T10:01:03.405Z,2.53
2022-11-17T10:03:37.528Z,2.37
2022-11-17T10:06:17.097Z,3.23
2022-11-17T10:08:55.898Z,2.80
2022-11-17T10:11:35.105Z,2.90
2022-11-17T10:14:11.264Z,3.77
2022-11-17T10:16:41.981Z,2.20
2022-11-17T10:19:18.968Z,2.50
2022-11-17T10:21:49.693Z,2.40
2022-11-17T10:24:38.093Z,4.23
2022-11-17T10:27:19.052Z,2.70
2022-11-17T10:29:59.073Z,3.73
2022-11-17T10:32:28.695Z,2.23
2022-11-17T10:34:57.367Z,2.87
2022-11-17T10:37:31.930Z,4.10
2022-11-17T10:40:24.712Z,3.10
2022-11-17T10:43:17.882Z,3.47
2022-11-17T10:45:51.178Z,3.53
2022-11-17T10:48:28.015Z,3.10
2022-11-17T10:50:58.751Z,2.27
2022-11-17T10:53:39.501Z,4.00
2022-11-17T10:56:18.880Z,3.37
2022-11-17T10:59:13.741Z,3.00
2022-11-17T11:01:44.786Z,3.83
2022-11-17T11:04:31.796Z,3.83
2022-11-17T11:07:12.571Z,4.17
2022-11-17T11:09:46.874Z,4.53
2022-11-17T11:12:21.219Z,2.67
2022-11-17T11:14:55.085Z,3.47
2022-11-17T11:17:23.746Z,3.53
2022-11-17T11:19:54.069Z,3.00
2022-11-17T11:22:35.390Z,3.40
2022-11-17T11:25:18.565Z,3.70
2022-11-17T11:28:00.287Z,4.07
2022-11-17T11:30:30.710Z,3.37
2022-11-17T11:33:21.577Z,3.00
2022-11-17T11:36:17.172Z,1.43
2022-11-17T11:39:00.725Z,2.90
2022-11-17T11:41:50.234Z,2.47
2022-11-17T11:44:39.786Z,3.80
2022-11-17T11:47:22.605Z,2.70
2022-11-17T11:49:55.377Z,3.07
2022-11-17T11:52:28.243Z,2.70
2022-11-17T11:55:00.344Z,3.23
2022-11-17T11:57:36.091Z,2.43
2022-11-17T12:00:14.593Z,3.10
2022-11-17T12:02:49.328Z,2.93
2022-11-17T12:05:25.634Z,1.80
2022-11-17T12:08:04.748Z,3.73
2022-11-17T12:10:43.725Z,1.87
2022-11-17T12:13:15.979Z,4.13
2022-11-17T12:15:46.196Z,3.47
2022-11-17T12:18:30.553Z,3.60
2022-11-17T12:21:05.580Z,2.80
2022-11-17T12:24:14.073Z,2.33
2022-11-17T12:26:43.001Z,3.23
2022-11-17T12:29:32.846Z,3.90
2022-11-17T12:32:04.193Z,4.33
2022-11-17T12:34:35.820Z,3.37
2022-11-17T12:37:19.024Z,3.13
2022-11-17T12:40:02.302Z,3.73
2022-11-17T12:42:31.780Z,4.50
2022-11-17T12:45:02.610Z,4.40
2022-11-17T12:47:34.674Z,5.37
2022-11-17T12:50:23.150Z,4.10
2022-11-17T12:53:22.691Z,4.33
2022-11-17T12:56:29.529Z,3.20
2022-11-17T12:59:14.376Z,3.90
2022-11-17T13:01:49.619Z,3.30
2022-11-17T13:04:22.734Z,3.60
2022-11-17T13:07:02.105Z,4.40
2022-11-17T13:09:33.324Z,4.70
2022-11-17T13:12:04.195Z,4.77
2022-11-17T13:14:33.589Z,3.80
2022-11-17T13:17:03.192Z,3.90
2022-11-17T13:19:36.340Z,4.23
2022-11-17T13:22:10.417Z,2.83
2022-11-17T13:24:41.061Z,4.10
2022-11-17T13:27:24.463Z,3.33
2022-11-17T13:29:56.249Z,4.70
2022-11-17T13:32:28.710Z,4.13
2022-11-17T13:35:00.495Z,5.50
2022-11-17T13:37:31.015Z,3.73
2022-11-17T13:40:02.239Z,4.10
2022-11-17T13:42:34.297Z,3.10
2022-11-17T13:45:06.149Z,4.73
2022-11-17T13:47:46.877Z,4.10
2022-11-17T13:50:37.161Z,4.20
2022-11-17T13:53:27.155Z,4.27
2022-11-17T13:55:55.861Z,5.13
2022-11-17T13:58:35.395Z,5.03
2022-11-17T14:01:04.128Z,4.60
2022-11-17T14:03:39.175Z,3.80
2022-11-17T14:06:11.912Z,4.17
2022-11-17T14:08:44.576Z,4.33
2022-11-17T14:11:30.956Z,3.63
2022-11-17T14:14:01.324Z,2.90
2022-11-17T14:16:37.272Z,4.27
2022-11-17T14:19:27.320Z,3.90
2022-11-17T14:22:05.804Z,4.30
2022-11-17T14:24:34.567Z,4.17
2022-11-17T14:27:05.228Z,2.47
2022-11-17T14:29:34.242Z,3.80
2022-11-17T14:32:03.074Z,3.03
2022-11-17T14:34:31.716Z,4.30
2022-11-17T14:37:00.391Z,4.40
2022-11-17T14:39:30.408Z,4.17
2022-11-17T14:41:59.098Z,3.10
2022-11-17T14:44:28.228Z,3.10
2022-11-17T14:46:57.011Z,4.47
2022-11-17T14:49:25.939Z,3.10
2022-11-17T14:51:56.394Z,2.23
2022-11-17T14:54:38.068Z,4.50
2022-11-17T14:57:08.652Z,2.00
2022-11-17T14:59:38.115Z,2.60
2022-11-17T15:02:07.247Z,2.97
2022-11-17T15:04:50.123Z,3.00
2022-11-17T15:07:20.950Z,3.43
2022-11-17T15:09:50.182Z,3.27
2022-11-17T15:12:22.409Z,3.53
2022-11-17T15:14:51.965Z,3.47
2022-11-17T15:17:21.802Z,7.80
2022-11-17T15:20:11.963Z,6.03
2022-11-17T15:22:42.119Z,3.93
2022-11-17T15:25:13.127Z,10.23
2022-11-17T15:27:43.902Z,22.10
2022-11-17T15:30:14.199Z,6.53
2022-11-17T15:32:43.661Z,5.63
2022-11-17T15:35:12.833Z,7.93
2022-11-17T15:37:41.964Z,4.10
2022-11-17T15:40:18.011Z,4.80
2022-11-17T15:42:54.660Z,2.60
2022-11-17T15:45:23.716Z,4.93
2022-11-17T15:48:02.754Z,4.13
2022-11-17T15:50:31.828Z,5.80
2022-11-17T15:53:04.977Z,5.23
2022-11-17T15:55:36.714Z,3.93
2022-11-17T15:58:07.523Z,3.07
2022-11-17T16:00:36.514Z,4.53
2022-11-17T16:03:07.997Z,4.77
2022-11-17T16:05:37.313Z,3.17
2022-11-17T16:08:06.846Z,5.40
2022-11-17T16:10:35.644Z,4.03
2022-11-17T16:13:06.169Z,5.27
2022-11-17T16:15:35.370Z,4.33
2022-11-17T16:18:04.058Z,4.40
2022-11-17T16:20:33.021Z,4.87
2022-11-17T16:23:01.923Z,4.40
2022-11-17T16:25:30.844Z,4.60
2022-11-17T16:27:59.944Z,6.47
2022-11-17T16:30:35.307Z,4.50
2022-11-17T16:33:05.134Z,5.40
2022-11-17T16:35:34.260Z,5.90
2022-11-17T16:38:03.179Z,3.97
2022-11-17T16:40:35.397Z,4.73
2022-11-17T16:43:04.334Z,5.87
2022-11-17T16:45:46.633Z,4.43
2022-11-17T16:48:15.542Z,4.27
2022-11-17T16:50:46.779Z,3.43
2022-11-17T16:53:15.914Z,4.63
2022-11-17T16:55:45.076Z,6.03
2022-11-17T16:58:13.927Z,12.90
2022-11-17T17:00:44.683Z,5.00
2022-11-17T17:03:13.547Z,7.37
2022-11-17T17:05:42.860Z,8.17
2022-11-17T17:08:11.711Z,8.53
2022-11-17T17:10:40.596Z,7.33
2022-11-17T17:13:09.587Z,6.20
2022-11-17T17:15:38.366Z,5.90
2022-11-17T17:18:08.734Z,5.73
2022-11-17T17:20:37.690Z,7.90
2022-11-17T17:23:06.722Z,6.67
2022-11-17T17:25:35.652Z,6.00
2022-11-17T17:28:05.104Z,7.10
2022-11-17T17:30:34.320Z,6.63
2022-11-17T17:33:03.082Z,8.20
2022-11-17T17:35:35.722Z,11.60
2022-11-17T17:38:04.548Z,6.57
2022-11-17T17:40:33.460Z,5.60
2022-11-17T17:43:02.938Z,6.60
2022-11-17T17:45:32.553Z,5.30
2022-11-17T17:48:07.211Z,5.57
2022-11-17T17:50:40.621Z,5.97
2022-11-17T17:53:09.671Z,5.87
2022-11-17T17:55:41.804Z,6.47
2022-11-17T17:58:14.156Z,7.90
2022-11-17T18:00:50.209Z,9.20
2022-11-17T18:03:24.710Z,11.17
2022-11-17T18:06:00.133Z,8.40
2022-11-17T18:08:33.892Z,8.30
2022-11-17T18:11:12.639Z,8.60
2022-11-17T18:13:43.265Z,6.67
2022-11-17T18:16:22.494Z,10.20
2022-11-17T18:19:01.831Z,7.70
2022-11-17T18:21:34.098Z,7.20
2022-11-17T18:27:14.064Z,6.27
2022-11-17T18:29:44.823Z,6.70
2022-11-17T18:32:17.687Z,6.47
2022-11-17T18:34:46.303Z,7.63
2022-11-17T18:37:16.556Z,6.90
2022-11-17T18:39:45.314Z,7.10
2022-11-17T18:42:13.912Z,7.13
2022-11-17T18:44:45.556Z,7.87
2022-11-17T18:47:15.320Z,6.50
2022-11-17T18:49:46.029Z,8.53
2022-11-17T18:52:18.872Z,7.63
2022-11-17T18:54:47.543Z,8.40
2022-11-17T18:57:16.198Z,7.57
2022-11-17T18:59:48.175Z,7.80
2022-11-17T19:02:16.843Z,8.97
2022-11-17T19:04:45.711Z,9.63
2022-11-17T19:07:15.441Z,9.00
2022-11-17T19:09:45.515Z,7.93
2022-11-17T19:12:23.549Z,10.03
2022-11-17T19:15:03.830Z,11.33
2022-11-17T19:17:32.577Z,9.60
2022-11-17T19:20:01.497Z,11.87
2022-11-17T19:22:30.210Z,14.83
2022-11-17T19:25:02.603Z,15.73
2022-11-17T19:27:32.301Z,12.77
2022-11-17T19:30:01.176Z,13.77
2022-11-17T19:32:33.231Z,12.40
2022-11-17T19:35:12.985Z,9.53
2022-11-17T19:37:44.110Z,10.20
2022-11-17T19:40:14.952Z,9.83
2022-11-17T19:42:44.678Z,11.43
2022-11-17T19:45:13.288Z,11.33
2022-11-17T19:47:42.246Z,11.07
2022-11-17T19:50:11.703Z,9.50
2022-11-17T19:52:40.333Z,11.27
2022-11-17T19:55:09.484Z,9.93
2022-11-17T19:57:39.508Z,9.73
2022-11-17T20:00:09.358Z,11.10
2022-11-17T20:02:38.465Z,9.40
2022-11-17T20:05:10.827Z,10.97
2022-11-17T20:07:40.041Z,9.30
2022-11-17T20:10:09.469Z,10.33
2022-11-17T20:12:43.379Z,10.73
2022-11-17T20:15:32.989Z,9.43
2022-11-17T20:18:02.094Z,6.73
2022-11-17T20:20:31.326Z,9.03
2022-11-17T20:23:01.304Z,9.90
2022-11-17T20:28:20.727Z,10.73
2022-11-17T20:30:51.282Z,14.70
2022-11-17T20:33:20.153Z,11.50
2022-11-17T20:36:27.296Z,11.63
2022-11-17T20:41:48.376Z,11.40
2022-11-17T20:44:27.804Z,11.07
2022-11-17T20:46:57.413Z,10.73
2022-11-17T20:49:28.217Z,11.80
2022-11-17T20:51:56.872Z,10.53
2022-11-17T20:54:25.522Z,12.97
2022-11-17T20:56:54.196Z,11.53
2022-11-17T20:59:24.303Z,10.73
2022-11-17T21:01:53.181Z,10.77
2022-11-17T21:04:21.826Z,11.27
2022-11-17T21:06:50.518Z,12.47
2022-11-17T21:09:20.432Z,10.90
2022-11-17T21:11:58.480Z,11.13
2022-11-17T21:14:30.826Z,10.50
2022-11-17T21:17:01.131Z,10.70
2022-11-17T21:19:32.335Z,9.73
2022-11-17T21:22:03.035Z,10.07
2022-11-17T21:24:31.669Z,9.03
2022-11-17T21:27:00.407Z,9.40
2022-11-17T21:29:31.214Z,8.87
2022-11-17T21:32:00.109Z,11.43
2022-11-17T21:34:29.050Z,10.50
2022-11-17T21:36:57.989Z,9.90
2022-11-17T21:39:26.852Z,10.70
2022-11-17T21:41:56.128Z,10.20
2022-11-17T21:44:25.585Z,10.47
2022-11-17T21:46:55.845Z,10.43
2022-11-17T21:49:24.513Z,11.40
2022-11-17T21:51:53.563Z,10.07
2022-11-17T21:54:22.892Z,10.13
2022-11-17T21:56:52.336Z,10.27
2022-11-17T21:59:21.361Z,11.17
2022-11-17T22:01:50.373Z,12.13
2022-11-17T22:04:20.665Z,13.20
2022-11-17T22:06:49.287Z,10.77
2022-11-17T22:09:19.419Z,12.20
2022-11-17T22:11:48.337Z,13.27
2022-11-17T22:14:19.369Z,12.50
2022-11-17T22:16:51.592Z,12.63
2022-11-17T22:19:24.813Z,12.00
2022-11-17T22:21:55.116Z,13.73
2022-11-17T22:24:26.757Z,13.53
2022-11-17T22:26:56.112Z,13.23
2022-11-17T22:29:32.903Z,11.50
2022-11-17T22:32:03.895Z,11.57
2022-11-17T22:34:37.031Z,11.50
2022-11-17T22:37:09.218Z,12.10
2022-11-17T22:39:41.260Z,12.70
2022-11-17T22:42:18.635Z,13.73
2022-11-17T22:44:52.145Z,13.10
2022-11-17T22:47:23.438Z,12.83
2022-11-17T22:49:55.538Z,13.13
2022-11-17T22:52:24.544Z,13.23
2022-11-17T22:54:53.732Z,14.87
2022-11-17T22:57:22.436Z,15.93
2022-11-17T22:59:51.230Z,14.10
2022-11-17T23:02:31.036Z,13.63
2022-11-17T23:05:01.233Z,16.53
2022-11-17T23:07:31.333Z,13.70
2022-11-17T23:10:00.095Z,13.50
2022-11-17T23:12:29.225Z,13.87
2022-11-17T23:14:58.110Z,13.27
2022-11-17T23:17:27.058Z,15.10
2022-11-17T23:19:56.121Z,14.70
2022-11-17T23:22:29.000Z,14.27
2022-11-17T23:24:57.829Z,14.40
2022-11-17T23:27:30.150Z,15.20
2022-11-17T23:30:01.508Z,14.80
2022-11-17T23:32:33.794Z,16.07
2022-11-17T23:35:03.153Z,15.90
2022-11-17T23:37:34.261Z,15.50
2022-11-17T23:40:08.546Z,16.97
2022-11-17T23:42:42.917Z,17.60
2022-11-17T23:45:13.721Z,16.90
2022-11-17T23:47:43.175Z,16.27
2022-11-17T23:50:12.919Z,17.00
2022-11-17T23:52:46.163Z,17.27
2022-11-17T23:55:15.637Z,18.00
2022-11-17T23:57:44.848Z,20.90
